Time;durP1;ratioP1;P1;durP2;ratioP2;P2;SDS_P1;SDS_P2;PMS_P1;PMS_P2;Temp;Humidity;BMP_temperature;BMP_pressure;BME280_temperature;BME280_humidity;BME280_pressure;Samples;Min_cycle;Max_cycle;Signal;HPM_P1;HPM_P2
2022/12/25 00:01:21;;;;;;;31.73;20.08;;;;;;;6.57;84.02;100880.06;1670359;85;21543;-82
2022/12/25 00:03:49;;;;;;;34.92;20.00;;;;;;;6.54;84.12;100878.90;1651404;86;20966;-83
2022/12/25 00:06:15;;;;;;;31.10;20.37;;;;;;;6.53;84.07;100868.91;1631180;86;21511;-85
2022/12/25 00:08:42;;;;;;;39.75;22.32;;;;;;;6.51;84.09;100872.02;1637267;86;21149;-84
2022/12/25 00:11:16;;;;;;;30.37;21.30;;;;;;;6.48;83.84;100868.25;1633778;86;21018;-84
2022/12/25 00:13:43;;;;;;;32.58;19.92;;;;;;;6.40;83.73;100871.16;1647520;86;21129;-83
2022/12/25 00:16:20;;;;;;;31.42;20.40;;;;;;;6.29;83.73;100866.83;1632795;86;21109;-84
2022/12/25 00:18:46;;;;;;;28.35;20.37;;;;;;;6.16;84.00;100872.10;1660452;84;21022;-83
2022/12/25 00:21:15;;;;;;;28.25;19.15;;;;;;;6.06;84.44;100866.83;1664729;84;21857;-83
2022/12/25 00:23:43;;;;;;;29.70;19.82;;;;;;;6.03;84.93;100864.35;1649173;86;20967;-84
2022/12/25 00:26:16;;;;;;;30.23;19.73;;;;;;;6.00;84.90;100864.86;1641306;86;21032;-84
2022/12/25 00:28:43;;;;;;;31.85;19.15;;;;;;;5.96;85.13;100864.57;1658721;85;21049;-85
2022/12/25 00:31:13;;;;;;;32.45;20.68;;;;;;;5.94;85.37;100871.59;1669666;84;21055;-86
2022/12/25 00:33:41;;;;;;;34.10;21.17;;;;;;;5.91;85.48;100864.30;1632969;86;21205;-83
2022/12/25 00:36:08;;;;;;;33.92;21.30;;;;;;;5.87;85.51;100864.01;1644467;86;21137;-85
2022/12/25 00:38:36;;;;;;;33.00;21.33;;;;;;;5.84;85.63;100862.38;1671699;84;20956;-83
2022/12/25 00:41:09;;;;;;;33.58;22.45;;;;;;;5.83;85.71;100861.15;1635218;86;20955;-84
2022/12/25 00:43:37;;;;;;;31.12;20.17;;;;;;;5.84;85.96;100858.92;1646134;86;21124;-84
2022/12/25 00:46:05;;;;;;;35.60;23.02;;;;;;;5.88;86.05;100858.76;1646084;86;21173;-84
2022/12/25 00:48:32;;;;;;;37.83;22.98;;;;;;;5.89;85.81;100866.10;1643062;86;21019;-83
2022/12/25 00:51:01;;;;;;;32.28;22.02;;;;;;;5.91;85.88;100865.59;1641779;86;20962;-82
2022/12/25 00:53:28;;;;;;;33.90;21.95;;;;;;;5.94;85.94;100865.51;1634009;85;20998;-84
2022/12/25 00:55:58;;;;;;;43.90;24.37;;;;;;;5.97;85.78;100870.16;1656718;84;21457;-84
2022/12/25 00:58:25;;;;;;;35.73;22.75;;;;;;;5.99;85.72;100872.72;1655439;84;21196;-84
2022/12/25 01:00:51;;;;;;;35.90;22.87;;;;;;;5.99;85.63;100867.51;1665738;84;21436;-82
2022/12/25 01:03:18;;;;;;;36.98;23.92;;;;;;;6.01;85.56;100865.70;1639620;86;20912;-83
2022/12/25 01:06:00;;;;;;;33.80;22.37;;;;;;;6.01;85.40;100877.41;1644025;86;21398;-84
2022/12/25 01:08:29;;;;;;;36.17;23.32;;;;;;;6.00;85.28;100869.19;1666662;84;21590;-84
2022/12/25 01:11:05;;;;;;;31.37;19.48;;;;;;;5.99;85.21;100866.20;1642829;86;21278;-84
2022/12/25 01:13:34;;;;;;;36.58;21.90;;;;;;;6.00;85.34;100870.06;1657493;84;21543;-86
2022/12/25 01:16:09;;;;;;;35.13;22.65;;;;;;;6.03;85.31;100867.80;1681649;84;21225;-85
2022/12/25 01:18:36;;;;;;;31.75;22.15;;;;;;;6.05;85.22;100873.80;1646621;86;21018;-84
2022/12/25 01:21:09;;;;;;;36.38;23.15;;;;;;;6.05;85.18;100875.09;1635862;85;20915;-85
2022/12/25 01:23:37;;;;;;;33.60;22.30;;;;;;;6.03;84.94;100877.37;1651646;86;21241;-83
2022/12/25 01:26:05;;;;;;;42.23;23.30;;;;;;;5.99;84.89;100875.32;1681068;84;21125;-84
2022/12/25 01:28:32;;;;;;;34.23;20.57;;;;;;;5.96;84.95;100878.05;1644015;86;20983;-83
2022/12/25 01:30:59;;;;;;;40.80;22.62;;;;;;;5.96;84.86;100874.14;1638452;86;21058;-83
2022/12/25 01:33:27;;;;;;;32.53;20.45;;;;;;;5.98;84.91;100883.59;1640294;86;21042;-84
2022/12/25 01:35:53;;;;;;;35.03;21.17;;;;;;;5.99;84.64;100880.52;1664173;84;21194;-83
2022/12/25 01:38:20;;;;;;;36.85;20.37;;;;;;;5.96;84.81;100873.69;1682780;84;21339;-84
2022/12/25 01:40:47;;;;;;;31.00;19.75;;;;;;;5.99;84.87;100881.37;1637543;84;21102;-83
2022/12/25 01:43:26;;;;;;;35.83;20.23;;;;;;;6.00;84.81;100880.48;1679470;84;20971;-84
2022/12/25 01:45:53;;;;;;;30.95;19.70;;;;;;;5.98;84.71;100880.11;1634257;86;21039;-83
2022/12/25 01:48:27;;;;;;;34.03;21.05;;;;;;;5.94;84.73;100882.42;1639757;86;21169;-83
2022/12/25 01:51:12;;;;;;;37.05;21.20;;;;;;;5.94;84.77;100883.72;1634100;86;21032;-84
2022/12/25 01:53:39;;;;;;;32.67;22.13;;;;;;;5.94;84.75;100887.63;1633793;86;21039;-83
2022/12/25 01:56:06;;;;;;;32.17;19.57;;;;;;;5.90;84.61;100880.83;1637766;86;21069;-83
2022/12/25 01:58:33;;;;;;;31.30;20.08;;;;;;;5.91;84.80;100886.42;1674914;84;21115;-83
2022/12/25 02:00:59;;;;;;;30.92;20.30;;;;;;;5.94;85.02;100885.03;1633038;86;21919;-84
2022/12/25 02:03:26;;;;;;;32.85;21.05;;;;;;;5.99;85.07;100886.57;1642694;85;21628;-84
2022/12/25 02:05:53;;;;;;;33.70;20.45;;;;;;;6.03;84.88;100883.42;1637337;86;21547;-85
2022/12/25 02:08:20;;;;;;;31.87;19.98;;;;;;;6.01;84.74;100882.62;1637256;86;21595;-83
2022/12/25 02:10:46;;;;;;;41.48;22.15;;;;;;;5.97;84.69;100878.42;1670858;84;20964;-85
2022/12/25 02:13:16;;;;;;;35.55;21.55;;;;;;;5.94;84.95;100882.00;1643248;86;21376;-84
2022/12/25 02:15:54;;;;;;;36.17;22.02;;;;;;;5.96;85.11;100879.34;1656021;86;20944;-85
2022/12/25 02:18:52;;;;;;;34.38;21.77;;;;;;;5.98;85.48;100882.28;1647239;86;21117;-85
2022/12/25 02:21:55;;;;;;;32.03;22.07;;;;;;;6.03;85.29;100883.42;1634316;85;21064;-86
2022/12/25 02:24:49;;;;;;;33.95;21.60;;;;;;;6.03;85.07;100882.12;1635031;86;21688;-84
2022/12/25 02:27:21;;;;;;;35.55;21.42;;;;;;;5.99;85.07;100876.63;1638192;86;21252;-83
2022/12/25 02:30:05;;;;;;;32.85;21.27;;;;;;;5.95;85.25;100881.53;1668954;84;21517;-84
2022/12/25 02:34:01;;;;;;;35.13;21.73;;;;;;;5.89;85.37;100879.12;1659703;84;21579;-83
2022/12/25 02:35:29;;;;;;;29.32;20.50;;;;;;;5.84;85.62;100886.25;1641939;86;21082;-84
2022/12/25 02:38:06;;;;;;;;;;;;;;;5.80;86.11;100887.67;1646652;86;20948;-85
2022/12/25 02:40:38;;;;;;;41.08;23.80;;;;;;;5.79;86.14;100882.06;1638404;85;21164;-85
2022/12/25 03:11:53;;;;;;;29.18;19.87;;;;;;;5.95;88.45;100900.60;1668630;84;20940;-84
2022/12/25 03:17:05;;;;;;;27.55;19.80;;;;;;;5.97;87.81;100911.81;1641828;86;20889;-83
2022/12/25 03:28:02;;;;;;;32.70;21.17;;;;;;;5.89;87.28;100898.64;1659968;84;21117;-84
2022/12/25 03:35:21;;;;;;;38.67;24.12;;;;;;;5.77;87.71;100904.68;1639447;86;21101;-84
2022/12/25 03:36:13;;;;;;;40.30;26.20;;;;;;;5.80;88.38;100901.12;1637285;86;21317;-83
2022/12/25 03:45:41;;;;;;;42.48;25.92;;;;;;;5.92;88.28;100911.10;1641067;86;20904;-84
2022/12/25 04:37:28;;;;;;;33.38;22.85;;;;;;;5.89;87.27;100941.58;1645607;85;21118;-83
2022/12/25 04:39:55;;;;;;;35.58;21.17;;;;;;;5.84;87.23;100939.14;1643682;85;21050;-84
2022/12/25 04:42:22;;;;;;;33.20;20.68;;;;;;;5.77;87.15;100940.27;1640510;84;21038;-84
2022/12/25 04:44:49;;;;;;;34.95;22.40;;;;;;;5.71;87.40;100937.42;1675738;81;21120;-84
2022/12/25 04:47:15;;;;;;;37.42;22.93;;;;;;;5.69;87.83;100938.37;1690469;82;20987;-84
2022/12/25 04:49:41;;;;;;;39.65;23.42;;;;;;;5.69;87.94;100944.45;1693296;83;20970;-84
2022/12/25 04:53:33;;;;;;;40.23;23.77;;;;;;;5.72;88.31;100943.03;1797914;79;22522;-84
2022/12/25 04:56:01;;;;;;;41.55;25.12;;;;;;;5.72;88.58;100952.59;1758519;80;20984;-83
2022/12/25 04:58:27;;;;;;;39.03;24.37;;;;;;;5.80;88.94;100955.34;1758470;80;21123;-83
2022/12/25 05:01:00;;;;;;;35.08;23.45;;;;;;;5.89;88.82;100958.50;1758402;81;20888;-84
2022/12/25 05:03:28;;;;;;;40.00;24.67;;;;;;;5.95;88.56;100959.17;1758607;81;20975;-84
2022/12/25 05:05:55;;;;;;;37.45;23.35;;;;;;;6.01;88.40;100962.02;1758454;81;20900;-83
2022/12/25 05:08:22;;;;;;;38.85;26.23;;;;;;;6.06;88.27;100959.25;1758540;80;20888;-83
2022/12/25 05:10:49;;;;;;;45.75;26.77;;;;;;;6.07;87.91;100964.41;1758658;81;21265;-83
2022/12/25 05:13:17;;;;;;;47.45;28.65;;;;;;;6.03;87.37;100965.87;1758500;80;20928;-83
2022/12/25 05:15:43;;;;;;;53.02;29.70;;;;;;;6.00;87.38;100968.11;1758425;80;20979;-83
2022/12/25 05:18:10;;;;;;;50.67;31.23;;;;;;;5.98;87.35;100968.62;1739345;81;20987;-84
2022/12/25 05:20:37;;;;;;;48.60;31.20;;;;;;;5.91;87.07;100973.62;1758415;80;20888;-84
2022/12/25 05:23:03;;;;;;;48.50;28.83;;;;;;;5.81;87.08;100970.03;1758326;80;21771;-85
2022/12/25 05:25:32;;;;;;;49.95;29.72;;;;;;;5.75;87.23;100979.34;1758458;81;20979;-84
2022/12/25 05:27:58;;;;;;;51.33;29.72;;;;;;;5.68;87.11;100977.02;1758522;80;20990;-84
2022/12/25 05:30:25;;;;;;;53.00;29.35;;;;;;;5.56;87.19;100984.34;1758452;80;20865;-83
2022/12/25 05:32:51;;;;;;;54.30;31.65;;;;;;;5.48;87.41;100986.79;1758446;80;20943;-83
2022/12/25 05:35:18;;;;;;;45.20;28.62;;;;;;;5.39;87.67;100986.64;1758334;81;21130;-83
2022/12/25 05:37:44;;;;;;;46.75;27.93;;;;;;;5.35;88.02;100988.94;1758354;81;20888;-83
2022/12/25 05:40:11;;;;;;;50.88;29.32;;;;;;;5.34;88.33;100987.25;1758324;80;20928;-84
2022/12/25 05:42:38;;;;;;;49.93;30.52;;;;;;;5.34;88.53;100989.39;1758435;80;20979;-82
2022/12/25 05:45:06;;;;;;;54.23;31.45;;;;;;;5.37;88.79;100981.94;1758490;80;20920;-84
2022/12/25 05:47:34;;;;;;;53.33;31.90;;;;;;;5.41;88.78;100990.05;1758499;80;21160;-82
2022/12/25 05:50:02;;;;;;;57.93;32.53;;;;;;;5.44;88.98;100987.33;1758355;80;20873;-82
2022/12/25 05:52:32;;;;;;;54.00;32.33;;;;;;;5.48;88.80;100991.99;1752160;80;21480;-84
2022/12/25 05:55:00;;;;;;;55.78;33.15;;;;;;;5.53;89.12;100991.38;1745312;81;21480;-84
2022/12/25 05:57:30;;;;;;;48.02;30.05;;;;;;;5.57;88.81;100987.78;1745313;81;20955;-82
2022/12/25 05:59:56;;;;;;;55.95;31.12;;;;;;;5.64;88.86;100990.57;1745405;81;21170;-85
2022/12/25 06:02:23;;;;;;;59.10;32.05;;;;;;;5.67;88.64;100995.69;1745483;81;20933;-83
2022/12/25 06:04:50;;;;;;;50.25;29.98;;;;;;;5.69;88.35;101003.00;1744844;80;20952;-83
2022/12/25 06:07:16;;;;;;;56.50;31.40;;;;;;;5.71;88.59;101002.92;1744794;81;21394;-82
2022/12/25 06:09:43;;;;;;;57.83;32.25;;;;;;;5.72;88.37;101007.24;1744853;81;20976;-84
2022/12/25 06:12:10;;;;;;;57.35;32.15;;;;;;;5.72;88.63;101009.84;1744711;81;21781;-84
2022/12/25 06:14:37;;;;;;;62.60;31.60;;;;;;;5.77;88.67;101000.13;1744576;81;20932;-84
2022/12/25 06:17:04;;;;;;;55.60;32.03;;;;;;;5.81;88.45;101003.02;1744780;80;20885;-85
2022/12/25 06:19:32;;;;;;;50.00;28.85;;;;;;;5.80;88.21;101002.61;1744647;81;20968;-85
2022/12/25 06:21:58;;;;;;;59.20;34.33;;;;;;;5.77;87.89;101007.92;1744862;81;20960;-83
2022/12/25 06:24:25;;;;;;;54.48;32.63;;;;;;;5.76;88.16;101006.24;1744743;81;21234;-84
2022/12/25 06:26:51;;;;;;;58.85;32.78;;;;;;;5.81;88.56;100996.06;1744698;82;20983;-85
2022/12/25 06:29:18;;;;;;;56.83;30.72;;;;;;;5.87;88.39;100994.14;1744799;81;21000;-82
2022/12/25 06:31:45;;;;;;;60.70;32.58;;;;;;;5.91;88.25;101002.25;1744902;81;20889;-85
2022/12/25 06:34:15;;;;;;;61.58;34.10;;;;;;;5.93;87.97;100997.84;1744888;81;20992;-85
2022/12/25 06:36:40;;;;;;;61.45;33.18;;;;;;;5.94;87.98;101002.16;1744664;81;21678;-86
2022/12/25 06:39:06;;;;;;;56.05;31.95;;;;;;;5.94;87.87;101007.37;1744741;81;20940;-85
2022/12/25 06:41:33;;;;;;;59.60;35.10;;;;;;;5.90;87.75;101002.70;1744883;81;20881;-86
2022/12/25 06:44:00;;;;;;;57.48;30.80;;;;;;;5.88;87.93;101002.36;1744666;80;20968;-88
2022/12/25 06:46:28;;;;;;;59.98;32.35;;;;;;;5.85;87.68;101004.62;1744725;81;20888;-87
2022/12/25 06:48:56;;;;;;;56.37;30.60;;;;;;;5.83;87.83;101008.19;1744758;81;21796;-85
2022/12/25 06:51:25;;;;;;;50.98;29.02;;;;;;;5.80;88.47;101006.09;1734199;82;21104;-87
2022/12/25 06:53:52;;;;;;;52.30;28.77;;;;;;;5.83;88.28;101010.79;1756788;80;21413;-85
2022/12/25 06:56:22;;;;;;;50.63;29.75;;;;;;;5.79;88.45;101012.17;1758248;81;20959;-85
2022/12/25 06:58:52;;;;;;;51.18;29.32;;;;;;;5.83;88.91;101010.79;1758054;80;20861;-85
2022/12/25 07:01:26;;;;;;;51.20;29.75;;;;;;;5.87;88.47;101017.56;1758040;81;21819;-86
2022/12/25 07:03:56;;;;;;;54.83;30.23;;;;;;;5.86;88.27;101014.58;1758020;81;21594;-85
2022/12/25 07:06:24;;;;;;;48.55;28.67;;;;;;;5.83;87.99;101015.53;1758123;80;21392;-83
2022/12/25 07:08:50;;;;;;;57.67;31.07;;;;;;;5.81;87.67;101017.34;1758078;81;20956;-85
2022/12/25 07:11:17;;;;;;;50.60;28.12;;;;;;;5.76;87.60;101017.50;1758373;81;20869;-85
2022/12/25 07:13:43;;;;;;;50.60;29.70;;;;;;;5.76;87.75;101024.46;1758273;80;21136;-86
2022/12/25 07:16:10;;;;;;;52.98;29.72;;;;;;;5.76;87.77;101022.70;1757901;81;20936;-86
2022/12/25 07:18:37;;;;;;;47.80;28.40;;;;;;;5.75;87.83;101026.19;1758032;81;20893;-86
2022/12/25 07:21:16;;;;;;;48.65;30.45;;;;;;;5.74;87.95;101034.06;1757854;81;20924;-84
2022/12/25 07:23:43;;;;;;;48.83;29.67;;;;;;;5.76;88.00;101035.71;1758351;81;21003;-87
2022/12/25 07:26:10;;;;;;;49.38;29.00;;;;;;;5.79;88.32;101038.20;1758895;80;21178;-85
2022/12/25 07:28:38;;;;;;;53.60;31.40;;;;;;;5.84;88.58;101037.20;1757839;81;20968;-87
2022/12/25 07:31:09;;;;;;;61.30;34.55;;;;;;;5.92;88.73;101041.70;1758029;81;20900;-86
2022/12/25 07:33:35;;;;;;;55.75;33.98;;;;;;;5.97;88.45;101036.76;1758023;80;20948;-84
2022/12/25 07:36:04;;;;;;;51.90;31.07;;;;;;;6.03;88.28;101043.98;1758118;80;20853;-86
2022/12/25 07:38:31;;;;;;;52.13;30.32;;;;;;;6.08;88.06;101046.81;1758150;81;21272;-85
2022/12/25 07:40:58;;;;;;;49.35;29.95;;;;;;;6.09;87.48;101050.25;1758614;81;20975;-88
2022/12/25 07:43:24;;;;;;;50.92;29.15;;;;;;;6.10;87.60;101050.67;1758897;81;20912;-88
2022/12/25 07:45:58;;;;;;;46.28;28.02;;;;;;;6.12;87.62;101048.41;1759926;81;20983;-87
2022/12/25 07:48:26;;;;;;;54.25;32.48;;;;;;;6.16;87.49;101047.86;1758647;80;20853;-86
2022/12/25 07:50:59;;;;;;;57.73;33.30;;;;;;;6.16;87.24;101046.10;1759655;81;21802;-87
2022/12/25 07:53:26;;;;;;;58.70;34.35;;;;;;;6.14;87.11;101048.36;1753043;78;20905;-85
2022/12/25 07:55:58;;;;;;;57.60;32.40;;;;;;;6.11;87.09;101054.50;1747864;78;20839;-86
2022/12/25 07:58:24;;;;;;;61.42;34.63;;;;;;;6.07;86.93;101046.42;1747550;78;21155;-83
2022/12/25 11:49:07;;;;;;;81.82;41.85;;;;;;;5.78;94.44;101062.53;1753391;78;21228;-86
2022/12/25 11:51:38;;;;;;;87.22;41.58;;;;;;;5.84;94.57;101063.22;1759817;78;20916;-84
2022/12/25 11:54:27;;;;;;;84.47;42.65;;;;;;;5.91;94.68;101061.66;1756068;78;20983;-85
2022/12/25 11:56:53;;;;;;;86.80;42.75;;;;;;;6.01;94.60;101076.11;1749975;78;21120;-86
2022/12/25 11:59:35;;;;;;;85.83;44.15;;;;;;;6.08;94.32;101068.09;1760325;78;20979;-84
2022/12/25 12:02:42;;;;;;;86.57;46.58;;;;;;;6.13;94.18;101068.78;1752482;78;20917;-85
2022/12/25 12:05:26;;;;;;;87.82;43.30;;;;;;;6.15;93.77;101070.42;1761263;78;21010;-86
2022/12/25 12:08:02;;;;;;;94.03;45.28;;;;;;;6.18;93.25;101070.34;1759884;78;20884;-85
2022/12/25 12:10:48;;;;;;;90.80;44.42;;;;;;;6.20;93.13;101077.65;1759612;78;21242;-85
2022/12/25 12:13:40;;;;;;;88.75;45.67;;;;;;;6.21;92.81;101084.55;1756570;80;20869;-84
2022/12/25 12:16:07;;;;;;;81.67;40.08;;;;;;;6.16;92.42;101083.02;1755883;80;20923;-85
2022/12/25 12:18:35;;;;;;;86.67;44.98;;;;;;;6.08;92.31;101078.52;1704263;81;20991;-86
2022/12/25 12:21:19;;;;;;;89.92;46.13;;;;;;;5.97;92.52;101071.90;1726619;81;20991;-86
2022/12/25 12:24:15;;;;;;;90.07;45.98;;;;;;;5.88;92.77;101075.24;1760592;81;21144;-86
2022/12/25 12:26:42;;;;;;;93.92;46.28;;;;;;;5.81;92.87;101070.69;1761511;81;20849;-86
2022/12/25 12:29:42;;;;;;;95.22;44.80;;;;;;;5.74;93.03;101082.20;1760984;81;20927;-84
2022/12/25 12:32:39;;;;;;;84.25;41.42;;;;;;;5.71;93.37;101083.59;1754209;81;20990;-86
2022/12/25 12:35:35;;;;;;;82.57;40.78;;;;;;;5.74;93.52;101085.66;1760189;81;20968;-85
2022/12/25 12:38:06;;;;;;;84.22;39.85;;;;;;;5.67;93.52;101084.58;1750662;81;21253;-85
2022/12/25 12:40:37;;;;;;;77.42;35.80;;;;;;;5.61;93.95;101080.44;1757611;81;20880;-86
2022/12/25 12:43:05;;;;;;;74.37;36.17;;;;;;;5.59;94.10;101081.78;1727135;81;21519;-86
2022/12/25 12:45:35;;;;;;;65.80;31.45;;;;;;;5.55;94.51;101089.28;1754098;81;20868;-87
2022/12/25 12:48:18;;;;;;;69.85;32.63;;;;;;;5.59;94.94;101091.34;1757357;81;20924;-86
2022/12/25 12:50:45;;;;;;;75.12;34.67;;;;;;;5.59;94.79;101094.79;1722986;81;21290;-85
2022/12/25 12:53:27;;;;;;;80.53;36.38;;;;;;;5.57;94.91;101090.08;1748557;81;20896;-85
2022/12/25 12:55:55;;;;;;;76.82;34.55;;;;;;;5.56;94.87;101090.16;1747710;81;21559;-85
2022/12/25 12:58:43;;;;;;;82.30;36.48;;;;;;;5.56;95.15;101095.36;1757578;81;21331;-86
2022/12/25 13:01:28;;;;;;;80.67;37.23;;;;;;;5.58;95.01;101098.73;1750222;81;20915;-85
2022/12/25 13:04:21;;;;;;;85.75;36.98;;;;;;;5.56;94.99;101092.30;1720038;82;21306;-86
2022/12/25 13:07:05;;;;;;;82.20;35.20;;;;;;;5.55;95.07;101096.23;1725337;82;20999;-89
2022/12/25 13:09:49;;;;;;;85.93;34.00;;;;;;;5.51;94.91;101101.98;1692683;82;20944;-86
2022/12/25 13:12:16;;;;;;;76.90;33.85;;;;;;;5.47;95.10;101107.32;1722685;82;20987;-86
2022/12/25 13:14:46;;;;;;;78.15;32.85;;;;;;;5.48;95.62;101108.58;1702352;83;20912;-85
2022/12/25 13:17:16;;;;;;;79.60;33.60;;;;;;;5.53;95.66;101107.98;1726250;82;21308;-86
2022/12/25 13:19:43;;;;;;;76.57;33.35;;;;;;;5.55;95.67;101115.75;1724942;82;20951;-85
2022/12/25 13:22:26;;;;;;;68.12;32.65;;;;;;;5.55;95.56;101119.65;1726687;82;20943;-87
2022/12/25 13:24:59;;;;;;;63.87;30.65;;;;;;;5.53;95.58;101122.29;1722738;82;21021;-87
2022/12/25 13:27:29;;;;;;;62.50;27.87;;;;;;;5.51;95.29;101118.88;1712467;82;21508;-86
2022/12/25 13:29:57;;;;;;;61.18;28.20;;;;;;;5.43;94.99;101128.69;1718967;82;21049;-87
2022/12/25 13:32:29;;;;;;;57.65;27.98;;;;;;;5.35;95.05;101129.36;1721341;82;21373;-86
2022/12/25 13:34:59;;;;;;;60.25;29.00;;;;;;;5.35;95.60;101131.51;1721882;82;20964;-85
2022/12/25 13:37:27;;;;;;;55.25;28.07;;;;;;;5.39;95.81;101135.72;1712342;82;21003;-86
2022/12/25 13:39:56;;;;;;;52.90;26.80;;;;;;;5.44;95.94;101136.04;1717920;82;21496;-85
2022/12/25 13:42:27;;;;;;;53.35;29.12;;;;;;;5.49;95.90;101136.31;1757932;81;21106;-85
2022/12/25 13:44:59;;;;;;;61.33;30.62;;;;;;;5.46;95.09;101133.79;1750536;81;20954;-85
2022/12/25 13:47:36;;;;;;;59.18;27.82;;;;;;;5.46;95.46;101133.79;1753450;81;20955;-86
2022/12/25 13:50:26;;;;;;;64.55;30.25;;;;;;;5.46;95.14;101143.35;1752713;81;20919;-86
2022/12/25 13:52:55;;;;;;;66.28;29.12;;;;;;;5.42;94.93;101136.53;1754284;81;20853;-86
2022/12/25 13:55:27;;;;;;;70.03;29.77;;;;;;;5.36;94.91;101139.73;1757830;81;21138;-84
2022/12/25 13:57:57;;;;;;;70.30;29.90;;;;;;;5.38;94.95;101153.55;1753821;81;20848;-86
2022/12/25 14:00:37;;;;;;;65.30;32.05;;;;;;;5.38;94.93;101146.16;1749243;81;21504;-86
2022/12/25 14:03:06;;;;;;;69.17;29.90;;;;;;;5.39;94.86;101147.88;1743656;81;21432;-86
2022/12/25 14:05:36;;;;;;;71.53;31.77;;;;;;;5.34;94.71;101147.18;1746583;81;21356;-85
2022/12/25 14:08:12;;;;;;;61.00;30.55;;;;;;;5.29;94.55;101152.52;1752398;81;21129;-87
2022/12/25 14:10:40;;;;;;;66.10;31.57;;;;;;;5.25;94.78;101150.05;1742487;81;20903;-87
2022/12/25 14:13:13;;;;;;;72.40;35.35;;;;;;;5.22;94.92;101150.97;1763569;81;21459;-85
2022/12/25 14:15:40;;;;;;;72.85;32.70;;;;;;;5.21;95.08;101154.48;1751870;81;20923;-86
2022/12/25 14:18:16;;;;;;;72.50;35.33;;;;;;;5.18;95.02;101163.68;1750142;81;21003;-85
2022/12/25 14:21:13;;;;;;;74.90;33.23;;;;;;;5.16;95.50;101162.41;1755393;81;21153;-87
2022/12/25 14:23:46;;;;;;;75.55;32.08;;;;;;;5.19;95.68;101161.02;1756044;81;20904;-85
2022/12/25 14:26:26;;;;;;;79.72;33.98;;;;;;;5.26;95.37;101162.14;1742282;81;20897;-87
2022/12/25 14:29:12;;;;;;;72.90;35.78;;;;;;;5.23;95.05;101160.49;1751920;81;20912;-87
2022/12/25 14:31:38;;;;;;;88.97;40.85;;;;;;;5.25;95.46;101160.45;1757493;81;20896;-85
2022/12/25 14:34:10;;;;;;;80.05;38.90;;;;;;;5.27;95.21;101171.64;1756036;81;21206;-87
2022/12/25 14:40:00;;;;;;;74.50;35.70;;;;;;;5.25;94.99;101163.05;1744152;81;21404;-86
2022/12/25 14:42:30;;;;;;;84.10;41.70;;;;;;;5.18;94.86;101171.48;1751521;81;20951;-85
2022/12/25 14:49:08;;;;;;;78.13;38.20;;;;;;;5.14;95.27;101180.26;1707360;82;21223;-84
2022/12/25 14:55:26;;;;;;;;;;;;;;;5.12;95.24;101182.89;1712618;82;20920;-85
2022/12/25 14:57:57;;;;;;;70.80;31.73;;;;;;;5.12;95.12;101171.20;1708254;82;20131;-86
2022/12/25 15:00:35;;;;;;;66.77;31.02;;;;;;;5.10;95.07;101179.94;1726056;82;21031;-86
2022/12/25 15:03:04;;;;;;;59.25;31.50;;;;;;;5.13;95.41;101178.08;1709558;82;21196;-88
2022/12/25 15:05:36;;;;;;;61.55;29.02;;;;;;;5.17;95.35;101184.06;1713731;82;21051;-85
2022/12/25 15:08:11;;;;;;;57.45;28.62;;;;;;;5.21;95.42;101184.84;1708211;82;20944;-86
2022/12/25 15:10:40;;;;;;;64.30;29.75;;;;;;;5.26;95.27;101190.75;1733812;81;20888;-85
2022/12/25 15:13:06;;;;;;;61.35;30.37;;;;;;;5.25;95.05;101183.86;1734638;81;20873;-87
2022/12/25 15:15:33;;;;;;;56.65;29.25;;;;;;;5.25;94.89;101189.91;1744345;82;21088;-85
2022/12/25 15:18:01;;;;;;;60.52;29.77;;;;;;;5.28;94.93;101191.11;1718608;82;20979;-85
2022/12/25 15:20:30;;;;;;;60.10;29.45;;;;;;;5.33;94.81;101193.56;1734815;82;21075;-85
2022/12/25 15:23:01;;;;;;;66.10;31.65;;;;;;;5.35;94.80;101183.98;1723810;82;21006;-84
2022/12/25 15:25:28;;;;;;;62.98;31.30;;;;;;;5.35;94.56;101191.32;1736105;82;20952;-84
2022/12/25 15:27:55;;;;;;;57.13;30.40;;;;;;;5.37;94.53;101191.29;1741669;82;21195;-86
2022/12/25 15:30:22;;;;;;;61.18;31.45;;;;;;;5.37;94.53;101198.63;1728731;82;20893;-86
2022/12/25 15:32:48;;;;;;;56.80;30.35;;;;;;;5.38;94.61;101196.45;1735296;82;20952;-85
2022/12/25 15:35:18;;;;;;;63.25;32.80;;;;;;;5.38;94.32;101201.66;1721564;82;21010;-86
2022/12/25 15:37:45;;;;;;;66.12;33.25;;;;;;;5.32;93.94;101204.88;1732960;82;21068;-86
2022/12/25 15:40:15;;;;;;;66.90;32.95;;;;;;;5.27;94.24;101206.73;1720473;82;21115;-86
2022/12/25 15:42:43;;;;;;;64.70;32.45;;;;;;;5.30;94.44;101209.27;1729875;82;21027;-87
2022/12/25 15:45:18;;;;;;;63.95;33.73;;;;;;;5.31;94.18;101207.91;1721611;82;21074;-85
2022/12/25 15:47:45;;;;;;;59.85;33.23;;;;;;;5.28;93.90;101215.80;1733060;82;20919;-85
2022/12/25 15:50:12;;;;;;;59.33;33.00;;;;;;;5.23;93.79;101215.09;1708198;82;20845;-84
2022/12/25 15:52:38;;;;;;;68.65;33.88;;;;;;;5.15;93.84;101210.55;1724218;82;21129;-85
2022/12/25 15:55:06;;;;;;;62.08;32.80;;;;;;;5.12;94.42;101211.49;1729899;82;21521;-84
2022/12/25 15:57:33;;;;;;;63.00;32.17;;;;;;;5.14;94.78;101207.55;1716653;82;20857;-85
2022/12/25 16:00:03;;;;;;;58.17;32.95;;;;;;;5.17;94.71;101209.61;1741665;82;20912;-85
2022/12/25 16:02:36;;;;;;;73.47;36.60;;;;;;;5.16;94.47;101210.52;1730105;82;21047;-86
2022/12/25 16:05:03;;;;;;;62.00;31.95;;;;;;;5.16;94.61;101206.61;1716472;82;21191;-84
2022/12/25 16:07:32;;;;;;;57.85;33.33;;;;;;;5.18;94.68;101213.92;1737664;82;21015;-84
2022/12/25 16:09:58;;;;;;;64.40;35.78;;;;;;;5.22;94.68;101209.92;1731430;82;20983;-87
2022/12/25 16:12:26;;;;;;;68.05;33.70;;;;;;;5.24;94.54;101214.64;1722827;82;21564;-86
2022/12/25 16:14:52;;;;;;;65.12;36.35;;;;;;;5.25;94.55;101209.41;1712576;81;20960;-84
2022/12/25 16:17:19;;;;;;;64.60;35.23;;;;;;;5.27;94.55;101211.94;1730974;82;21247;-86
2022/12/25 16:19:46;;;;;;;63.52;39.00;;;;;;;5.31;94.86;101220.91;1708454;82;21568;-86
2022/12/25 16:22:15;;;;;;;59.88;35.33;;;;;;;5.37;95.04;101222.05;1718233;81;20968;-85
2022/12/25 19:51:52;;;;;;;60.38;33.78;;;;;;;5.47;100.00;101303.70;1718106;82;20983;-87
2022/12/25 19:54:19;;;;;;;62.58;32.17;;;;;;;5.59;99.48;101298.17;1718162;82;21519;-85
2022/12/25 19:56:47;;;;;;;59.93;32.05;;;;;;;5.60;98.45;101302.05;1706150;82;20889;-84
2022/12/25 19:59:14;;;;;;;58.05;32.73;;;;;;;5.60;97.82;101306.38;1696388;82;21003;-86
2022/12/25 20:01:41;;;;;;;60.67;32.85;;;;;;;5.65;98.24;101309.72;1750405;80;21050;-86
2022/12/25 20:04:08;;;;;;;64.55;33.35;;;;;;;5.73;98.16;101305.13;1742967;80;20995;-88
2022/12/25 20:06:37;;;;;;;58.05;32.63;;;;;;;5.79;97.56;101306.25;1727997;80;20956;-87
2022/12/25 20:09:10;;;;;;;65.00;34.73;;;;;;;5.84;97.14;101307.42;1740297;80;21219;-86
2022/12/25 20:11:37;;;;;;;60.08;31.97;;;;;;;5.91;96.59;101312.84;1746942;80;21014;-86
2022/12/25 20:14:05;;;;;;;61.15;31.77;;;;;;;5.94;96.06;101310.20;1750100;80;21001;-85
2022/12/25 20:16:32;;;;;;;56.68;30.97;;;;;;;5.95;95.73;101309.29;1750271;80;20888;-86
2022/12/25 20:18:59;;;;;;;56.42;30.80;;;;;;;5.94;95.37;101311.50;1748906;80;20943;-86
2022/12/25 20:21:26;;;;;;;57.23;31.07;;;;;;;5.94;95.26;101308.91;1713841;80;21223;-86
2022/12/25 20:23:53;;;;;;;54.20;28.80;;;;;;;5.98;95.07;101309.64;1749423;80;20931;-87
2022/12/25 20:26:22;;;;;;;57.38;31.80;;;;;;;5.97;94.63;101315.30;1732451;80;20947;-86
2022/12/25 20:28:52;;;;;;;59.10;30.35;;;;;;;5.97;94.37;101318.37;1752062;80;21061;-83
2022/12/25 20:31:22;;;;;;;56.23;30.72;;;;;;;5.97;94.21;101310.55;1754367;80;21114;-86
2022/12/25 20:33:49;;;;;;;60.67;30.82;;;;;;;5.93;94.01;101311.50;1741099;80;21147;-86
2022/12/25 20:36:17;;;;;;;57.50;30.37;;;;;;;5.89;93.79;101310.77;1751217;80;21063;-88
2022/12/25 20:38:44;;;;;;;58.95;32.45;;;;;;;5.85;93.66;101315.65;1745296;80;21082;-86
2022/12/25 20:41:17;;;;;;;57.85;31.40;;;;;;;5.81;93.58;101308.37;1741366;80;20924;-84